sensor_id;sensor_type;location;lat;lon;timestamp;pressure;altitude;pressure_sealevel;temperature;humidity
5879;BME280;2965;42.640;23.370;2023-06-22T04:00:48;94994.47;;;17.54;nan
5879;BME280;2965;42.640;23.370;2023-06-22T04:03:14;94990.81;;;17.55;nan
5879;BME280;2965;42.640;23.370;2023-06-22T04:05:40;94994.88;;;17.58;nan
5879;BME280;2965;42.640;23.370;2023-06-22T04:08:06;94998.91;;;17.60;nan
5879;BME280;2965;42.640;23.370;2023-06-22T04:10:33;95000.63;;;17.73;nan
5879;BME280;2965;42.640;23.370;2023-06-22T04:13:00;95001.28;;;17.75;nan
5879;BME280;2965;42.640;23.370;2023-06-22T04:15:25;94990.69;;;17.75;nan
5879;BME280;2965;42.640;23.370;2023-06-22T04:17:51;94989.47;;;17.71;nan
5879;BME280;2965;42.640;23.370;2023-06-22T04:20:16;94982.53;;;17.70;nan
5879;BME280;2965;42.640;23.370;2023-06-22T04:22:42;94986.22;;;17.69;nan
5879;BME280;2965;42.640;23.370;2023-06-22T04:25:07;94981.34;;;17.66;nan
5879;BME280;2965;42.640;23.370;2023-06-22T04:27:33;94975.06;;;17.67;nan
5879;BME280;2965;42.640;23.370;2023-06-22T04:30:03;94966.25;;;17.73;nan
5879;BME280;2965;42.640;23.370;2023-06-22T04:32:28;94963.50;;;17.86;nan
5879;BME280;2965;42.640;23.370;2023-06-22T04:34:54;94958.59;;;17.90;nan
5879;BME280;2965;42.640;23.370;2023-06-22T04:37:19;94945.94;;;17.92;nan
5879;BME280;2965;42.640;23.370;2023-06-22T04:39:48;94954.00;;;18.04;nan
5879;BME280;2965;42.640;23.370;2023-06-22T04:42:14;94950.03;;;18.13;nan
5879;BME280;2965;42.640;23.370;2023-06-22T04:44:39;94944.38;;;18.28;nan
5879;BME280;2965;42.640;23.370;2023-06-22T04:47:06;94957.47;;;18.41;nan
5879;BME280;2965;42.640;23.370;2023-06-22T04:49:34;94951.22;;;18.54;nan
5879;BME280;2965;42.640;23.370;2023-06-22T04:52:08;94958.59;;;18.70;nan
5879;BME280;2965;42.640;23.370;2023-06-22T04:54:35;94957.97;;;18.68;nan
5879;BME280;2965;42.640;23.370;2023-06-22T04:57:02;94965.75;;;18.63;nan
5879;BME280;2965;42.640;23.370;2023-06-22T04:59:29;94968.28;;;18.58;nan
5879;BME280;2965;42.640;23.370;2023-06-22T05:01:59;94977.69;;;18.54;nan
5879;BME280;2965;42.640;23.370;2023-06-22T05:04:26;94972.63;;;18.52;nan
5879;BME280;2965;42.640;23.370;2023-06-22T05:06:59;94969.75;;;18.54;nan
5879;BME280;2965;42.640;23.370;2023-06-22T05:09:29;94979.31;;;18.55;nan
5879;BME280;2965;42.640;23.370;2023-06-22T05:11:55;94983.75;;;18.61;nan
5879;BME280;2965;42.640;23.370;2023-06-22T05:14:21;94977.13;;;18.70;nan
5879;BME280;2965;42.640;23.370;2023-06-22T05:16:48;94970.81;;;18.71;nan
5879;BME280;2965;42.640;23.370;2023-06-22T05:21:55;94968.25;;;18.95;nan
5879;BME280;2965;42.640;23.370;2023-06-22T05:24:20;94976.19;;;19.13;nan
5879;BME280;2965;42.640;23.370;2023-06-22T05:26:46;94978.56;;;19.33;nan
5879;BME280;2965;42.640;23.370;2023-06-22T05:29:11;94985.50;;;19.46;nan
5879;BME280;2965;42.640;23.370;2023-06-22T05:31:37;94988.19;;;19.57;nan
5879;BME280;2965;42.640;23.370;2023-06-22T05:34:02;94998.72;;;19.64;nan
5879;BME280;2965;42.640;23.370;2023-06-22T05:36:28;95000.25;;;19.72;nan
5879;BME280;2965;42.640;23.370;2023-06-22T05:38:53;95009.03;;;19.72;nan
5879;BME280;2965;42.640;23.370;2023-06-22T05:41:19;95009.94;;;19.78;nan
5879;BME280;2965;42.640;23.370;2023-06-22T05:43:45;95017.69;;;19.79;nan
5879;BME280;2965;42.640;23.370;2023-06-22T05:46:10;95018.16;;;19.76;nan
5879;BME280;2965;42.640;23.370;2023-06-22T05:48:39;95014.13;;;19.85;nan
5879;BME280;2965;42.640;23.370;2023-06-22T05:51:04;95030.16;;;19.90;nan
5879;BME280;2965;42.640;23.370;2023-06-22T05:53:29;95036.53;;;20.01;nan
5879;BME280;2965;42.640;23.370;2023-06-22T05:55:55;95029.06;;;20.10;nan
5879;BME280;2965;42.640;23.370;2023-06-22T05:58:20;95026.03;;;20.18;nan
5879;BME280;2965;42.640;23.370;2023-06-22T06:00:46;95023.63;;;20.28;nan
5879;BME280;2965;42.640;23.370;2023-06-22T06:05:41;95012.75;;;20.53;nan
5879;BME280;2965;42.640;23.370;2023-06-22T06:08:07;95014.63;;;20.64;nan
5879;BME280;2965;42.640;23.370;2023-06-22T06:10:33;95018.63;;;20.67;nan
5879;BME280;2965;42.640;23.370;2023-06-22T06:12:59;95016.41;;;20.87;nan
5879;BME280;2965;42.640;23.370;2023-06-22T06:15:28;95019.94;;;21.05;nan
5879;BME280;2965;42.640;23.370;2023-06-22T06:17:53;95016.25;;;21.06;nan
5879;BME280;2965;42.640;23.370;2023-06-22T06:20:21;95020.47;;;21.19;nan
5879;BME280;2965;42.640;23.370;2023-06-22T06:22:47;95011.13;;;21.16;nan
5879;BME280;2965;42.640;23.370;2023-06-22T06:25:13;95010.41;;;21.32;nan
5879;BME280;2965;42.640;23.370;2023-06-22T06:27:45;95015.13;;;21.30;nan
5879;BME280;2965;42.640;23.370;2023-06-22T06:30:12;95020.63;;;21.52;nan
5879;BME280;2965;42.640;23.370;2023-06-22T06:32:38;95007.72;;;21.61;nan
5879;BME280;2965;42.640;23.370;2023-06-22T06:35:08;95019.31;;;21.55;nan
5879;BME280;2965;42.640;23.370;2023-06-22T06:37:38;95015.78;;;21.66;nan
5879;BME280;2965;42.640;23.370;2023-06-22T06:40:05;95023.22;;;21.81;nan
5879;BME280;2965;42.640;23.370;2023-06-22T06:42:35;95015.25;;;21.98;nan
5879;BME280;2965;42.640;23.370;2023-06-22T06:45:02;95018.38;;;21.95;nan
5879;BME280;2965;42.640;23.370;2023-06-22T06:47:28;95005.00;;;22.06;nan
5879;BME280;2965;42.640;23.370;2023-06-22T06:49:53;95002.38;;;22.23;nan
5879;BME280;2965;42.640;23.370;2023-06-22T06:52:19;95007.28;;;22.31;nan
5879;BME280;2965;42.640;23.370;2023-06-22T06:54:45;95009.38;;;22.29;nan
5879;BME280;2965;42.640;23.370;2023-06-22T06:57:10;95006.44;;;22.31;nan
5879;BME280;2965;42.640;23.370;2023-06-22T06:59:44;94993.63;;;22.45;nan
5879;BME280;2965;42.640;23.370;2023-06-22T07:02:10;94997.59;;;22.64;nan
5879;BME280;2965;42.640;23.370;2023-06-22T07:04:35;94992.16;;;22.76;nan
5879;BME280;2965;42.640;23.370;2023-06-22T07:07:01;94994.28;;;22.96;nan
5879;BME280;2965;42.640;23.370;2023-06-22T07:09:27;94996.50;;;23.04;nan
5879;BME280;2965;42.640;23.370;2023-06-22T07:11:52;95004.03;;;23.07;nan
5879;BME280;2965;42.640;23.370;2023-06-22T07:14:18;95000.78;;;23.05;nan
5879;BME280;2965;42.640;23.370;2023-06-22T07:16:43;94997.69;;;23.13;nan
5879;BME280;2965;42.640;23.370;2023-06-22T07:19:11;94995.28;;;23.11;nan
5879;BME280;2965;42.640;23.370;2023-06-22T07:21:37;94994.28;;;23.17;nan
5879;BME280;2965;42.640;23.370;2023-06-22T07:24:02;95002.69;;;23.31;nan
5879;BME280;2965;42.640;23.370;2023-06-22T07:26:27;95001.78;;;23.48;nan
5879;BME280;2965;42.640;23.370;2023-06-22T07:28:54;94998.03;;;23.71;nan
5879;BME280;2965;42.640;23.370;2023-06-22T07:33:49;94991.53;;;23.94;nan
5879;BME280;2965;42.640;23.370;2023-06-22T07:36:16;95002.38;;;24.09;nan
5879;BME280;2965;42.640;23.370;2023-06-22T07:38:42;94996.75;;;24.10;nan
5879;BME280;2965;42.640;23.370;2023-06-22T07:41:07;94993.59;;;24.13;nan
5879;BME280;2965;42.640;23.370;2023-06-22T07:43:33;95005.16;;;24.29;nan
5879;BME280;2965;42.640;23.370;2023-06-22T07:45:59;95011.09;;;24.36;nan
5879;BME280;2965;42.640;23.370;2023-06-22T07:48:25;95006.63;;;24.42;nan
5879;BME280;2965;42.640;23.370;2023-06-22T07:50:51;95010.19;;;24.53;nan
5879;BME280;2965;42.640;23.370;2023-06-22T07:53:18;95006.72;;;24.57;nan
5879;BME280;2965;42.640;23.370;2023-06-22T07:55:43;95005.44;;;24.70;nan
5879;BME280;2965;42.640;23.370;2023-06-22T07:58:09;94995.09;;;24.84;nan
5879;BME280;2965;42.640;23.370;2023-06-22T08:00:34;95005.03;;;24.94;nan
5879;BME280;2965;42.640;23.370;2023-06-22T08:02:59;94997.09;;;25.09;nan
5879;BME280;2965;42.640;23.370;2023-06-22T08:05:25;94991.78;;;25.19;nan
5879;BME280;2965;42.640;23.370;2023-06-22T08:07:50;94999.34;;;25.48;nan
5879;BME280;2965;42.640;23.370;2023-06-22T08:10:17;94992.41;;;25.52;nan
5879;BME280;2965;42.640;23.370;2023-06-22T08:12:42;94988.13;;;25.71;nan
5879;BME280;2965;42.640;23.370;2023-06-22T08:15:08;94983.63;;;25.82;nan
5879;BME280;2965;42.640;23.370;2023-06-22T08:17:36;94994.63;;;25.96;nan
5879;BME280;2965;42.640;23.370;2023-06-22T08:20:02;94992.47;;;26.13;nan
5879;BME280;2965;42.640;23.370;2023-06-22T08:22:34;94979.59;;;26.10;nan
5879;BME280;2965;42.640;23.370;2023-06-22T08:25:00;94978.53;;;26.06;nan
5879;BME280;2965;42.640;23.370;2023-06-22T08:27:25;94978.00;;;26.09;nan
5879;BME280;2965;42.640;23.370;2023-06-22T08:29:53;94974.78;;;26.12;nan
5879;BME280;2965;42.640;23.370;2023-06-22T08:32:23;94975.84;;;26.26;nan
5879;BME280;2965;42.640;23.370;2023-06-22T08:34:48;94968.31;;;26.33;nan
5879;BME280;2965;42.640;23.370;2023-06-22T08:37:14;94969.66;;;26.36;nan
5879;BME280;2965;42.640;23.370;2023-06-22T08:39:39;94976.34;;;26.49;nan
5879;BME280;2965;42.640;23.370;2023-06-22T08:42:05;94977.44;;;26.53;nan
5879;BME280;2965;42.640;23.370;2023-06-22T08:44:31;94985.44;;;26.58;nan
5879;BME280;2965;42.640;23.370;2023-06-22T08:46:57;94978.97;;;26.74;nan
5879;BME280;2965;42.640;23.370;2023-06-22T08:49:22;94985.41;;;26.68;nan
5879;BME280;2965;42.640;23.370;2023-06-22T08:51:47;94983.28;;;26.65;nan
5879;BME280;2965;42.640;23.370;2023-06-22T08:54:14;94989.72;;;26.59;nan
5879;BME280;2965;42.640;23.370;2023-06-22T08:56:40;94984.09;;;26.60;nan
5879;BME280;2965;42.640;23.370;2023-06-22T08:59:05;94968.25;;;26.69;nan
5879;BME280;2965;42.640;23.370;2023-06-22T09:01:33;94966.03;;;26.86;nan
5879;BME280;2965;42.640;23.370;2023-06-22T09:03:58;94970.28;;;27.03;nan
5879;BME280;2965;42.640;23.370;2023-06-22T09:06:25;94966.44;;;27.24;nan
5879;BME280;2965;42.640;23.370;2023-06-22T09:08:50;94963.63;;;27.50;nan
5879;BME280;2965;42.640;23.370;2023-06-22T09:11:16;94969.47;;;27.57;nan
5879;BME280;2965;42.640;23.370;2023-06-22T09:13:41;94959.22;;;27.64;nan
5879;BME280;2965;42.640;23.370;2023-06-22T09:16:07;94952.72;;;27.70;nan
5879;BME280;2965;42.640;23.370;2023-06-22T09:18:34;94959.31;;;27.88;nan
5879;BME280;2965;42.640;23.370;2023-06-22T09:20:59;94961.16;;;27.92;nan
5879;BME280;2965;42.640;23.370;2023-06-22T09:23:25;94964.84;;;28.02;nan
5879;BME280;2965;42.640;23.370;2023-06-22T09:25:50;94958.81;;;28.15;nan
5879;BME280;2965;42.640;23.370;2023-06-22T09:28:16;94958.38;;;28.08;nan
5879;BME280;2965;42.640;23.370;2023-06-22T09:30:43;94959.47;;;28.02;nan
5879;BME280;2965;42.640;23.370;2023-06-22T09:33:08;94971.75;;;28.13;nan
5879;BME280;2965;42.640;23.370;2023-06-22T09:35:34;94966.28;;;28.23;nan
5879;BME280;2965;42.640;23.370;2023-06-22T09:37:59;94965.16;;;28.29;nan
5879;BME280;2965;42.640;23.370;2023-06-22T09:40:24;94974.50;;;28.37;nan
5879;BME280;2965;42.640;23.370;2023-06-22T09:42:50;94972.25;;;28.49;nan
5879;BME280;2965;42.640;23.370;2023-06-22T09:45:15;94967.97;;;28.72;nan
5879;BME280;2965;42.640;23.370;2023-06-22T09:47:41;94964.31;;;28.87;nan
5879;BME280;2965;42.640;23.370;2023-06-22T09:50:07;94962.41;;;28.87;nan
5879;BME280;2965;42.640;23.370;2023-06-22T09:52:33;94966.69;;;28.88;nan
5879;BME280;2965;42.640;23.370;2023-06-22T09:54:59;94964.50;;;28.90;nan
5879;BME280;2965;42.640;23.370;2023-06-22T09:57:24;94957.47;;;28.95;nan
5879;BME280;2965;42.640;23.370;2023-06-22T09:59:49;94955.38;;;28.91;nan
5879;BME280;2965;42.640;23.370;2023-06-22T10:02:15;94951.78;;;29.20;nan
5879;BME280;2965;42.640;23.370;2023-06-22T10:04:40;94954.63;;;29.29;nan
5879;BME280;2965;42.640;23.370;2023-06-22T10:07:06;94951.16;;;29.47;nan
5879;BME280;2965;42.640;23.370;2023-06-22T10:09:31;94950.72;;;29.78;nan
5879;BME280;2965;42.640;23.370;2023-06-22T10:11:56;94949.84;;;29.45;nan
5879;BME280;2965;42.640;23.370;2023-06-22T10:14:22;94943.25;;;29.56;nan
5879;BME280;2965;42.640;23.370;2023-06-22T10:16:48;94943.69;;;29.63;nan
5879;BME280;2965;42.640;23.370;2023-06-22T10:19:13;94940.59;;;29.88;nan
5879;BME280;2965;42.640;23.370;2023-06-22T10:21:39;94936.44;;;30.10;nan
5879;BME280;2965;42.640;23.370;2023-06-22T10:24:04;94936.44;;;30.10;nan
5879;BME280;2965;42.640;23.370;2023-06-22T10:26:34;94942.72;;;30.24;nan
5879;BME280;2965;42.640;23.370;2023-06-22T10:29:00;94944.72;;;30.32;nan
5879;BME280;2965;42.640;23.370;2023-06-22T10:31:25;94937.94;;;30.49;nan
5879;BME280;2965;42.640;23.370;2023-06-22T10:33:52;94935.25;;;30.49;nan
5879;BME280;2965;42.640;23.370;2023-06-22T10:36:18;94936.53;;;30.37;nan
5879;BME280;2965;42.640;23.370;2023-06-22T10:38:44;94929.34;;;30.47;nan
5879;BME280;2965;42.640;23.370;2023-06-22T10:41:10;94924.75;;;30.61;nan
5879;BME280;2965;42.640;23.370;2023-06-22T10:43:36;94935.34;;;30.71;nan
5879;BME280;2965;42.640;23.370;2023-06-22T10:46:01;94919.50;;;30.83;nan
5879;BME280;2965;42.640;23.370;2023-06-22T10:48:26;94920.06;;;30.80;nan
5879;BME280;2965;42.640;23.370;2023-06-22T10:50:52;94921.97;;;30.52;nan
5879;BME280;2965;42.640;23.370;2023-06-22T10:53:18;94923.88;;;30.65;nan
5879;BME280;2965;42.640;23.370;2023-06-22T10:55:43;94916.38;;;30.90;nan
5879;BME280;2965;42.640;23.370;2023-06-22T10:58:09;94925.19;;;30.68;nan
5879;BME280;2965;42.640;23.370;2023-06-22T11:00:35;94914.75;;;31.03;nan
5879;BME280;2965;42.640;23.370;2023-06-22T11:03:00;94917.78;;;31.01;nan
5879;BME280;2965;42.640;23.370;2023-06-22T11:05:25;94920.66;;;31.55;nan
5879;BME280;2965;42.640;23.370;2023-06-22T11:07:51;94913.97;;;31.88;nan
5879;BME280;2965;42.640;23.370;2023-06-22T11:10:16;94907.75;;;31.88;nan
5879;BME280;2965;42.640;23.370;2023-06-22T11:12:42;94908.31;;;31.40;nan
5879;BME280;2965;42.640;23.370;2023-06-22T11:15:08;94911.56;;;31.73;nan
5879;BME280;2965;42.640;23.370;2023-06-22T11:17:34;94911.38;;;32.06;nan
5879;BME280;2965;42.640;23.370;2023-06-22T11:19:59;94908.22;;;32.44;nan
5879;BME280;2965;42.640;23.370;2023-06-22T11:22:25;94903.03;;;32.56;nan
5879;BME280;2965;42.640;23.370;2023-06-22T11:24:50;94907.00;;;32.50;nan
5879;BME280;2965;42.640;23.370;2023-06-22T11:27:16;94895.97;;;32.37;nan
5879;BME280;2965;42.640;23.370;2023-06-22T11:29:41;94902.81;;;32.44;nan
5879;BME280;2965;42.640;23.370;2023-06-22T11:32:07;94892.81;;;32.93;nan
5879;BME280;2965;42.640;23.370;2023-06-22T11:34:33;94888.06;;;33.24;nan
5879;BME280;2965;42.640;23.370;2023-06-22T11:36:58;94895.63;;;33.53;nan
5879;BME280;2965;42.640;23.370;2023-06-22T11:39:23;94886.50;;;33.23;nan
5879;BME280;2965;42.640;23.370;2023-06-22T11:41:49;94893.56;;;32.84;nan
5879;BME280;2965;42.640;23.370;2023-06-22T11:44:14;94892.28;;;32.82;nan
5879;BME280;2965;42.640;23.370;2023-06-22T11:46:39;94882.81;;;33.10;nan
5879;BME280;2965;42.640;23.370;2023-06-22T11:49:05;94885.84;;;33.09;nan
5879;BME280;2965;42.640;23.370;2023-06-22T11:51:30;94882.78;;;33.02;nan
5879;BME280;2965;42.640;23.370;2023-06-22T11:53:56;94873.28;;;33.39;nan
5879;BME280;2965;42.640;23.370;2023-06-22T11:56:22;94874.53;;;33.76;nan
5879;BME280;2965;42.640;23.370;2023-06-22T11:58:47;94873.13;;;33.70;nan
5879;BME280;2965;42.640;23.370;2023-06-22T12:01:13;94876.97;;;33.52;nan
5879;BME280;2965;42.640;23.370;2023-06-22T12:03:40;94869.09;;;33.33;nan
5879;BME280;2965;42.640;23.370;2023-06-22T12:06:06;94872.78;;;33.37;nan
5879;BME280;2965;42.640;23.370;2023-06-22T12:08:31;94876.63;;;33.62;nan
5879;BME280;2965;42.640;23.370;2023-06-22T12:10:57;94880.63;;;33.38;nan
5879;BME280;2965;42.640;23.370;2023-06-22T12:13:22;94872.94;;;33.40;nan
5879;BME280;2965;42.640;23.370;2023-06-22T12:15:47;94875.66;;;33.75;nan
5879;BME280;2965;42.640;23.370;2023-06-22T12:18:13;94887.78;;;33.43;nan
5879;BME280;2965;42.640;23.370;2023-06-22T12:20:40;94877.34;;;32.93;nan
5879;BME280;2965;42.640;23.370;2023-06-22T12:23:05;94878.16;;;32.54;nan
5879;BME280;2965;42.640;23.370;2023-06-22T12:25:31;94880.84;;;32.14;nan
5879;BME280;2965;42.640;23.370;2023-06-22T12:27:56;94890.34;;;31.58;nan
5879;BME280;2965;42.640;23.370;2023-06-22T12:30:22;94890.50;;;31.25;nan
5879;BME280;2965;42.640;23.370;2023-06-22T12:32:47;94898.34;;;30.30;nan
5879;BME280;2965;42.640;23.370;2023-06-22T12:35:12;94899.28;;;30.07;nan
5879;BME280;2965;42.640;23.370;2023-06-22T12:37:42;94917.41;;;29.87;nan
5879;BME280;2965;42.640;23.370;2023-06-22T12:40:08;94926.53;;;29.73;nan
5879;BME280;2965;42.640;23.370;2023-06-22T12:42:34;94939.50;;;29.33;nan
5879;BME280;2965;42.640;23.370;2023-06-22T12:44:59;94946.09;;;28.55;nan
5879;BME280;2965;42.640;23.370;2023-06-22T12:47:24;94936.97;;;27.58;nan
5879;BME280;2965;42.640;23.370;2023-06-22T12:49:50;94938.59;;;27.10;nan
5879;BME280;2965;42.640;23.370;2023-06-22T12:52:15;94931.03;;;26.47;nan
5879;BME280;2965;42.640;23.370;2023-06-22T12:54:41;94931.38;;;26.00;nan
5879;BME280;2965;42.640;23.370;2023-06-22T12:57:06;94947.13;;;25.45;nan
5879;BME280;2965;42.640;23.370;2023-06-22T12:59:31;94960.75;;;25.28;nan
5879;BME280;2965;42.640;23.370;2023-06-22T13:01:57;94960.22;;;25.26;nan
5879;BME280;2965;42.640;23.370;2023-06-22T13:04:22;94959.56;;;24.99;nan
5879;BME280;2965;42.640;23.370;2023-06-22T13:06:48;94953.56;;;24.66;nan
5879;BME280;2965;42.640;23.370;2023-06-22T13:09:14;94963.63;;;24.49;nan
5879;BME280;2965;42.640;23.370;2023-06-22T13:11:41;94956.56;;;24.32;nan
5879;BME280;2965;42.640;23.370;2023-06-22T13:14:07;94937.28;;;24.30;nan
5879;BME280;2965;42.640;23.370;2023-06-22T13:16:32;94932.34;;;24.07;nan
5879;BME280;2965;42.640;23.370;2023-06-22T13:18:57;94935.13;;;24.22;nan
5879;BME280;2965;42.640;23.370;2023-06-22T13:21:23;94922.44;;;24.07;nan
5879;BME280;2965;42.640;23.370;2023-06-22T13:23:48;94930.69;;;24.01;nan
5879;BME280;2965;42.640;23.370;2023-06-22T13:26:13;94926.50;;;24.10;nan
5879;BME280;2965;42.640;23.370;2023-06-22T13:28:39;94944.63;;;24.08;nan
5879;BME280;2965;42.640;23.370;2023-06-22T13:31:04;94932.63;;;24.10;nan
5879;BME280;2965;42.640;23.370;2023-06-22T13:33:30;94935.47;;;23.99;nan
5879;BME280;2965;42.640;23.370;2023-06-22T13:35:55;94925.84;;;23.92;nan
5879;BME280;2965;42.640;23.370;2023-06-22T13:38:21;94924.53;;;23.95;nan
5879;BME280;2965;42.640;23.370;2023-06-22T13:40:48;94921.97;;;23.73;nan
5879;BME280;2965;42.640;23.370;2023-06-22T13:43:13;94907.59;;;23.84;nan
5879;BME280;2965;42.640;23.370;2023-06-22T13:45:38;94910.72;;;23.71;nan
5879;BME280;2965;42.640;23.370;2023-06-22T13:48:04;94899.00;;;23.77;nan
5879;BME280;2965;42.640;23.370;2023-06-22T13:50:30;94905.81;;;23.63;nan
5879;BME280;2965;42.640;23.370;2023-06-22T13:52:55;94898.56;;;23.58;nan
5879;BME280;2965;42.640;23.370;2023-06-22T13:55:22;94901.09;;;23.70;nan
5879;BME280;2965;42.640;23.370;2023-06-22T13:57:48;94887.50;;;23.72;nan
5879;BME280;2965;42.640;23.370;2023-06-22T14:00:14;94884.78;;;23.66;nan
5879;BME280;2965;42.640;23.370;2023-06-22T14:02:40;94879.59;;;23.55;nan
5879;BME280;2965;42.640;23.370;2023-06-22T14:05:07;94883.28;;;23.49;nan
5879;BME280;2965;42.640;23.370;2023-06-22T14:07:32;94885.31;;;23.36;nan
5879;BME280;2965;42.640;23.370;2023-06-22T14:09:57;94896.50;;;23.33;nan
5879;BME280;2965;42.640;23.370;2023-06-22T14:12:24;94893.78;;;23.28;nan
5879;BME280;2965;42.640;23.370;2023-06-22T14:14:49;94908.22;;;23.32;nan
5879;BME280;2965;42.640;23.370;2023-06-22T14:17:15;94903.38;;;23.24;nan
5879;BME280;2965;42.640;23.370;2023-06-22T14:19:40;94895.19;;;23.09;nan
5879;BME280;2965;42.640;23.370;2023-06-22T14:22:06;94902.53;;;22.97;nan
5879;BME280;2965;42.640;23.370;2023-06-22T14:24:31;94894.34;;;22.81;nan
5879;BME280;2965;42.640;23.370;2023-06-22T14:26:57;94895.81;;;22.67;nan
5879;BME280;2965;42.640;23.370;2023-06-22T14:29:22;94893.81;;;22.57;nan
5879;BME280;2965;42.640;23.370;2023-06-22T14:31:48;94891.88;;;22.53;nan
5879;BME280;2965;42.640;23.370;2023-06-22T14:34:15;94892.88;;;22.47;nan
5879;BME280;2965;42.640;23.370;2023-06-22T14:36:41;94892.84;;;22.41;nan
5879;BME280;2965;42.640;23.370;2023-06-22T14:39:06;94887.56;;;22.47;nan
5879;BME280;2965;42.640;23.370;2023-06-22T14:41:32;94888.69;;;22.51;nan
5879;BME280;2965;42.640;23.370;2023-06-22T14:43:58;94890.84;;;22.54;nan
5879;BME280;2965;42.640;23.370;2023-06-22T14:46:23;94901.06;;;22.62;nan
5879;BME280;2965;42.640;23.370;2023-06-22T14:48:48;94889.47;;;22.73;nan
5879;BME280;2965;42.640;23.370;2023-06-22T14:51:14;94893.03;;;22.84;nan
5879;BME280;2965;42.640;23.370;2023-06-22T14:53:40;94894.00;;;22.95;nan
5879;BME280;2965;42.640;23.370;2023-06-22T14:56:05;94899.03;;;23.18;nan
5879;BME280;2965;42.640;23.370;2023-06-22T14:58:31;94894.94;;;23.37;nan
5879;BME280;2965;42.640;23.370;2023-06-22T15:01:03;94899.28;;;23.49;nan
5879;BME280;2965;42.640;23.370;2023-06-22T15:03:33;94898.69;;;23.69;nan
5879;BME280;2965;42.640;23.370;2023-06-22T15:06:00;94878.13;;;23.69;nan
5879;BME280;2965;42.640;23.370;2023-06-22T15:08:26;94891.09;;;23.87;nan
5879;BME280;2965;42.640;23.370;2023-06-22T15:10:52;94877.50;;;23.99;nan
5879;BME280;2965;42.640;23.370;2023-06-22T15:13:17;94870.91;;;24.12;nan
5879;BME280;2965;42.640;23.370;2023-06-22T15:15:46;94862.19;;;24.27;nan
5879;BME280;2965;42.640;23.370;2023-06-22T15:18:12;94850.25;;;24.39;nan
5879;BME280;2965;42.640;23.370;2023-06-22T15:20:37;94849.72;;;24.42;nan
5879;BME280;2965;42.640;23.370;2023-06-22T15:23:03;94844.44;;;24.58;nan
5879;BME280;2965;42.640;23.370;2023-06-22T15:25:28;94844.47;;;24.78;nan
5879;BME280;2965;42.640;23.370;2023-06-22T15:27:54;94836.50;;;24.88;nan
5879;BME280;2965;42.640;23.370;2023-06-22T15:30:19;94845.31;;;24.84;nan
5879;BME280;2965;42.640;23.370;2023-06-22T15:32:45;94847.19;;;24.94;nan
5879;BME280;2965;42.640;23.370;2023-06-22T15:35:11;94846.19;;;25.20;nan
5879;BME280;2965;42.640;23.370;2023-06-22T15:37:37;94858.50;;;25.36;nan
5879;BME280;2965;42.640;23.370;2023-06-22T15:40:03;94863.59;;;25.63;nan
5879;BME280;2965;42.640;23.370;2023-06-22T15:42:29;94863.25;;;26.21;nan
5879;BME280;2965;42.640;23.370;2023-06-22T15:44:54;94878.66;;;26.65;nan
5879;BME280;2965;42.640;23.370;2023-06-22T15:47:20;94896.78;;;26.94;nan
5879;BME280;2965;42.640;23.370;2023-06-22T15:49:50;94894.09;;;27.43;nan
5879;BME280;2965;42.640;23.370;2023-06-22T15:52:17;94898.00;;;27.95;nan
5879;BME280;2965;42.640;23.370;2023-06-22T15:54:47;94894.47;;;28.24;nan
5879;BME280;2965;42.640;23.370;2023-06-22T15:57:13;94908.22;;;28.22;nan
5879;BME280;2965;42.640;23.370;2023-06-22T15:59:42;94906.69;;;28.16;nan
5879;BME280;2965;42.640;23.370;2023-06-22T16:02:08;94896.13;;;28.20;nan
5879;BME280;2965;42.640;23.370;2023-06-22T16:04:34;94898.63;;;28.11;nan
5879;BME280;2965;42.640;23.370;2023-06-22T16:06:59;94907.00;;;28.09;nan
5879;BME280;2965;42.640;23.370;2023-06-22T16:09:25;94903.97;;;27.87;nan
5879;BME280;2965;42.640;23.370;2023-06-22T16:11:51;94914.56;;;27.73;nan
5879;BME280;2965;42.640;23.370;2023-06-22T16:14:16;94911.38;;;27.27;nan
5879;BME280;2965;42.640;23.370;2023-06-22T16:16:42;94911.47;;;27.06;nan
5879;BME280;2965;42.640;23.370;2023-06-22T16:19:07;94911.28;;;26.92;nan
5879;BME280;2965;42.640;23.370;2023-06-22T16:21:32;94912.63;;;26.90;nan
5879;BME280;2965;42.640;23.370;2023-06-22T16:23:58;94909.72;;;26.81;nan
5879;BME280;2965;42.640;23.370;2023-06-22T16:26:23;94914.34;;;26.71;nan
5879;BME280;2965;42.640;23.370;2023-06-22T16:28:49;94905.25;;;26.61;nan
5879;BME280;2965;42.640;23.370;2023-06-22T16:31:14;94902.34;;;26.53;nan
5879;BME280;2965;42.640;23.370;2023-06-22T16:33:41;94899.38;;;26.54;nan
5879;BME280;2965;42.640;23.370;2023-06-22T16:36:13;94906.06;;;26.52;nan
5879;BME280;2965;42.640;23.370;2023-06-22T16:38:39;94901.28;;;26.49;nan
5879;BME280;2965;42.640;23.370;2023-06-22T16:41:04;94899.13;;;26.40;nan
5879;BME280;2965;42.640;23.370;2023-06-22T16:43:36;94894.84;;;26.34;nan
5879;BME280;2965;42.640;23.370;2023-06-22T16:46:01;94903.44;;;26.31;nan
5879;BME280;2965;42.640;23.370;2023-06-22T16:48:27;94893.00;;;26.20;nan
5879;BME280;2965;42.640;23.370;2023-06-22T16:50:52;94892.19;;;26.19;nan
5879;BME280;2965;42.640;23.370;2023-06-22T16:53:17;94898.66;;;26.13;nan
5879;BME280;2965;42.640;23.370;2023-06-22T16:55:49;94899.72;;;26.17;nan
5879;BME280;2965;42.640;23.370;2023-06-22T16:58:14;94897.59;;;26.09;nan
5879;BME280;2965;42.640;23.370;2023-06-22T17:00:42;94900.00;;;26.10;nan
5879;BME280;2965;42.640;23.370;2023-06-22T17:03:12;94887.94;;;26.13;nan
5879;BME280;2965;42.640;23.370;2023-06-22T17:05:41;94886.34;;;26.12;nan
5879;BME280;2965;42.640;23.370;2023-06-22T17:08:09;94892.16;;;26.29;nan
5879;BME280;2965;42.640;23.370;2023-06-22T17:10:39;94898.88;;;26.32;nan
5879;BME280;2965;42.640;23.370;2023-06-22T17:13:04;94887.38;;;26.26;nan
5879;BME280;2965;42.640;23.370;2023-06-22T17:15:31;94895.91;;;26.33;nan
5879;BME280;2965;42.640;23.370;2023-06-22T17:17:57;94892.72;;;26.26;nan
5879;BME280;2965;42.640;23.370;2023-06-22T17:20:22;94895.44;;;26.11;nan
5879;BME280;2965;42.640;23.370;2023-06-22T17:22:50;94899.22;;;26.00;nan
5879;BME280;2965;42.640;23.370;2023-06-22T17:25:16;94894.41;;;25.91;nan
5879;BME280;2965;42.640;23.370;2023-06-22T17:27:47;94893.34;;;25.82;nan
5879;BME280;2965;42.640;23.370;2023-06-22T17:30:14;94893.88;;;25.79;nan
5879;BME280;2965;42.640;23.370;2023-06-22T17:32:46;94890.09;;;25.70;nan